createdAt,value
2023-04-23T00:02:03.222Z,26.12
2023-04-23T00:04:54.284Z,26.10
2023-04-23T00:07:43.961Z,26.06
2023-04-23T00:10:32.794Z,26.07
2023-04-23T00:13:22.063Z,25.99
2023-04-23T00:16:12.159Z,26.06
2023-04-23T00:19:02.285Z,26.05
2023-04-23T00:21:51.457Z,26.01
2023-04-23T00:24:40.270Z,26.04
2023-04-23T00:27:29.204Z,26.06
2023-04-23T00:30:18.901Z,26.03
2023-04-23T00:33:07.586Z,25.97
2023-04-23T00:35:57.706Z,26.06
2023-04-23T00:38:46.468Z,26.01
2023-04-23T00:41:35.844Z,26.01
2023-04-23T00:44:24.563Z,25.99
2023-04-23T00:47:13.220Z,26.06
2023-04-23T00:50:02.518Z,25.99
2023-04-23T00:52:52.576Z,26.02
2023-04-23T00:55:42.336Z,25.93
2023-04-23T00:58:31.341Z,25.93
2023-04-23T01:01:21.124Z,26.01
2023-04-23T01:04:10.886Z,25.98
2023-04-23T01:07:00.671Z,25.99
2023-04-23T01:09:51.937Z,25.98
2023-04-23T01:12:40.877Z,25.98
2023-04-23T01:15:29.486Z,25.92
2023-04-23T01:18:19.332Z,25.98
2023-04-23T01:21:08.430Z,25.94
2023-04-23T01:24:01.200Z,25.94
2023-04-23T01:26:49.893Z,25.94
2023-04-23T01:29:39.824Z,25.89
2023-04-23T01:32:28.501Z,25.96
2023-04-23T01:35:17.162Z,25.93
2023-04-23T01:38:07.073Z,25.87
2023-04-23T01:40:57.090Z,25.92
2023-04-23T01:43:46.171Z,25.95
2023-04-23T01:46:35.268Z,25.89
2023-04-23T01:49:24.070Z,25.89
2023-04-23T01:52:12.675Z,25.88
2023-04-23T01:55:02.025Z,25.93
2023-04-23T01:57:52.265Z,25.92
2023-04-23T02:00:40.887Z,25.88
2023-04-23T02:03:33.799Z,25.92
2023-04-23T02:06:22.755Z,25.86
2023-04-23T02:09:11.661Z,25.88
2023-04-23T02:12:01.869Z,25.88
2023-04-23T02:14:51.917Z,25.86
2023-04-23T02:17:40.660Z,25.87
2023-04-23T02:20:29.352Z,25.81
2023-04-23T02:23:17.942Z,25.83
2023-04-23T02:26:07.814Z,25.83
2023-04-23T02:28:56.440Z,25.82
2023-04-23T02:31:46.457Z,25.83
2023-04-23T02:34:35.061Z,25.82
2023-04-23T02:37:24.084Z,25.82
2023-04-23T02:40:13.652Z,25.81
2023-04-23T02:43:02.385Z,25.81
2023-04-23T02:45:50.999Z,25.79
2023-04-23T02:48:42.776Z,25.80
2023-04-23T02:51:31.705Z,25.79
2023-04-23T02:54:20.395Z,25.81
2023-04-23T02:57:09.037Z,25.80
2023-04-23T02:59:57.660Z,25.76
2023-04-23T03:02:46.563Z,25.82
2023-04-23T03:05:36.710Z,25.77
2023-04-23T03:08:25.462Z,25.70
2023-04-23T03:11:14.122Z,25.74
2023-04-23T03:14:02.788Z,25.71
2023-04-23T03:16:51.413Z,25.71
2023-04-23T03:19:40.072Z,25.79
2023-04-23T03:22:30.034Z,25.76
2023-04-23T03:25:19.289Z,25.77
2023-04-23T03:28:07.952Z,25.71
2023-04-23T03:30:56.658Z,25.72
2023-04-23T03:33:45.303Z,25.75
2023-04-23T03:36:34.058Z,25.77
2023-04-23T03:39:24.118Z,25.75
2023-04-23T03:42:12.768Z,25.74
2023-04-23T03:45:01.849Z,25.78
2023-04-23T03:47:50.532Z,25.83
2023-04-23T03:50:40.760Z,25.75
2023-04-23T03:53:29.412Z,25.72
2023-04-23T03:56:19.491Z,25.74
2023-04-23T03:59:08.162Z,25.76
2023-04-23T04:01:56.783Z,25.77
2023-04-23T04:04:46.571Z,25.75
2023-04-23T04:07:37.108Z,25.77
2023-04-23T04:10:26.091Z,25.78
2023-04-23T04:13:16.154Z,25.75
2023-04-23T04:16:04.963Z,25.69
2023-04-23T04:18:55.776Z,25.72
2023-04-23T04:21:45.055Z,25.68
2023-04-23T04:24:33.663Z,25.65
2023-04-23T04:27:22.777Z,25.70
2023-04-23T04:30:13.772Z,25.68
2023-04-23T04:33:02.532Z,25.71
2023-04-23T04:35:51.243Z,25.68
2023-04-23T04:38:40.006Z,25.73
2023-04-23T04:41:28.808Z,25.75
2023-04-23T04:44:17.555Z,25.74
2023-04-23T04:47:08.085Z,25.69
2023-04-23T04:49:57.770Z,25.70
2023-04-23T04:52:46.381Z,25.67
2023-04-23T04:55:35.055Z,25.66
2023-04-23T04:58:23.821Z,25.65
2023-04-23T05:01:13.530Z,25.73
2023-04-23T05:04:03.965Z,25.69
2023-04-23T05:06:52.739Z,25.67
2023-04-23T05:09:43.650Z,25.64
2023-04-23T05:12:33.452Z,25.66
2023-04-23T05:15:22.049Z,25.69
2023-04-23T05:18:11.943Z,25.71
2023-04-23T05:21:02.222Z,25.72
2023-04-23T05:23:50.854Z,25.70
2023-04-23T05:26:39.544Z,25.71
2023-04-23T05:29:28.187Z,25.76
2023-04-23T05:32:17.061Z,25.70
2023-04-23T05:35:06.991Z,25.67
2023-04-23T05:37:56.982Z,25.68
2023-04-23T05:40:45.656Z,25.66
2023-04-23T05:43:34.305Z,25.66
2023-04-23T05:46:22.917Z,25.65
2023-04-23T05:49:11.527Z,25.66
2023-04-23T05:52:00.495Z,25.68
2023-04-23T05:54:50.658Z,25.66
2023-04-23T05:57:40.049Z,25.68
2023-04-23T06:00:28.864Z,25.68
2023-04-23T06:03:17.641Z,25.70
2023-04-23T06:06:07.146Z,25.66
2023-04-23T06:08:55.815Z,25.68
2023-04-23T06:11:45.985Z,25.70
2023-04-23T06:14:34.618Z,25.71
2023-04-23T06:17:23.319Z,25.74
2023-04-23T06:20:12.185Z,25.77
2023-04-23T06:23:02.713Z,25.73
2023-04-23T06:25:51.324Z,25.77
2023-04-23T06:28:42.230Z,25.77
2023-04-23T06:31:31.025Z,25.86
2023-04-23T06:34:19.715Z,25.84
2023-04-23T06:37:08.752Z,25.87
2023-04-23T06:39:57.353Z,25.89
2023-04-23T06:42:47.583Z,25.90
2023-04-23T06:45:37.580Z,25.94
2023-04-23T06:48:27.082Z,25.86
2023-04-23T06:51:16.890Z,25.89
2023-04-23T06:54:05.971Z,25.88
2023-04-23T06:56:56.928Z,25.86
2023-04-23T06:59:45.690Z,25.86
2023-04-23T07:02:35.765Z,25.86
2023-04-23T07:05:24.774Z,25.84
2023-04-23T07:08:14.565Z,25.83
2023-04-23T07:11:03.578Z,25.79
2023-04-23T07:13:52.353Z,25.77
2023-04-23T07:16:41.025Z,25.82
2023-04-23T07:19:30.982Z,25.83
2023-04-23T07:22:22.679Z,25.83
2023-04-23T07:25:11.639Z,25.82
2023-04-23T07:28:00.616Z,25.80
2023-04-23T07:30:49.296Z,25.84
2023-04-23T07:33:38.042Z,25.83
2023-04-23T07:36:28.304Z,25.82
2023-04-23T07:39:16.930Z,25.83
2023-04-23T07:42:05.760Z,25.84
2023-04-23T07:44:54.320Z,25.83
2023-04-23T07:47:43.230Z,25.87
2023-04-23T07:50:31.888Z,25.86
2023-04-23T07:53:21.931Z,25.84
2023-04-23T07:56:10.559Z,25.86
2023-04-23T07:58:59.555Z,25.84
2023-04-23T08:01:48.383Z,25.88
2023-04-23T08:04:37.290Z,25.84
2023-04-23T08:07:26.197Z,25.83
2023-04-23T08:10:16.346Z,25.83
2023-04-23T08:13:05.569Z,25.81
2023-04-23T08:15:54.460Z,25.83
2023-04-23T08:18:50.930Z,25.84
2023-04-23T08:21:46.752Z,25.82
2023-04-23T08:24:35.378Z,25.83
2023-04-23T08:27:25.472Z,25.95
2023-04-23T08:30:15.145Z,25.97
2023-04-23T08:33:06.507Z,26.00
2023-04-23T08:35:55.228Z,26.09
2023-04-23T08:38:43.999Z,26.23
2023-04-23T08:41:37.146Z,26.34
2023-04-23T08:44:28.740Z,26.44
2023-04-23T08:47:20.230Z,26.55
2023-04-23T08:50:10.350Z,26.62
2023-04-23T08:52:59.784Z,26.90
2023-04-23T08:55:52.168Z,27.05
2023-04-23T08:58:42.965Z,27.14
2023-04-23T09:01:33.186Z,27.17
2023-04-23T09:04:22.268Z,27.25
2023-04-23T09:07:11.650Z,27.25
2023-04-23T09:10:00.463Z,27.26
2023-04-23T09:12:49.334Z,27.28
2023-04-23T09:15:43.490Z,27.35
2023-04-23T09:18:33.871Z,27.38
2023-04-23T09:21:22.598Z,27.40
2023-04-23T09:24:12.785Z,27.43
2023-04-23T09:27:01.424Z,27.48
2023-04-23T09:29:55.427Z,27.44
2023-04-23T09:32:46.212Z,27.25
2023-04-23T09:35:37.499Z,27.17
2023-04-23T09:38:27.894Z,27.42
2023-04-23T09:41:24.299Z,27.45
2023-04-23T09:44:14.075Z,27.54
2023-04-23T09:47:09.744Z,27.53
2023-04-23T09:49:58.465Z,27.50
2023-04-23T09:52:57.062Z,27.49
2023-04-23T09:55:46.592Z,27.52
2023-04-23T09:58:35.890Z,27.51
2023-04-23T10:01:30.583Z,27.54
2023-04-23T10:04:22.738Z,27.21
2023-04-23T10:07:19.574Z,27.04
2023-04-23T10:10:11.524Z,26.93
2023-04-23T10:13:00.911Z,26.87
2023-04-23T10:15:49.634Z,26.77
2023-04-23T10:18:39.337Z,26.70
2023-04-23T10:21:42.618Z,26.72
2023-04-23T10:24:36.344Z,26.69
2023-04-23T10:27:48.477Z,26.72
2023-04-23T10:30:38.819Z,26.73
2023-04-23T10:33:35.190Z,26.82
2023-04-23T10:36:29.074Z,26.80
2023-04-23T10:39:21.031Z,26.72
2023-04-23T10:42:19.413Z,26.70
2023-04-23T10:45:23.971Z,26.70
2023-04-23T10:48:13.859Z,26.75
2023-04-23T10:51:28.353Z,26.73
2023-04-23T10:54:12.078Z,26.75
2023-04-23T10:57:03.378Z,26.92
2023-04-23T10:59:56.300Z,26.97
2023-04-23T11:02:46.734Z,27.07
2023-04-23T11:05:37.132Z,26.82
2023-04-23T11:08:26.068Z,26.75
2023-04-23T11:11:14.744Z,26.70
2023-04-23T11:14:14.292Z,26.49
2023-04-23T11:17:03.245Z,26.37
2023-04-23T11:20:11.419Z,26.31
2023-04-23T11:23:00.125Z,26.27
2023-04-23T11:25:51.938Z,26.21
2023-04-23T11:28:44.629Z,26.19
2023-04-23T11:31:34.503Z,26.08
2023-04-23T11:34:25.543Z,26.14
2023-04-23T11:37:16.795Z,26.08
2023-04-23T11:40:08.551Z,26.04
2023-04-23T11:42:57.525Z,25.95
2023-04-23T11:45:46.243Z,25.93
2023-04-23T11:48:55.424Z,25.97
2023-04-23T11:51:45.672Z,25.83
2023-04-23T11:54:36.047Z,25.93
2023-04-23T11:57:24.712Z,25.93
2023-04-23T12:00:16.282Z,25.83
2023-04-23T12:03:07.079Z,25.84
2023-04-23T12:05:56.572Z,25.75
2023-04-23T12:08:48.538Z,25.73
2023-04-23T12:11:38.726Z,25.75
2023-04-23T12:14:29.996Z,25.74
2023-04-23T12:17:18.717Z,25.70
2023-04-23T12:20:11.950Z,25.68
2023-04-23T12:23:07.039Z,25.61
2023-04-23T12:25:55.918Z,25.55
2023-04-23T12:28:49.237Z,25.56
2023-04-23T12:31:39.773Z,25.57
2023-04-23T12:34:28.421Z,25.58
2023-04-23T12:37:17.898Z,25.43
2023-04-23T12:40:08.177Z,25.48
2023-04-23T12:42:56.746Z,25.53
2023-04-23T12:45:46.924Z,25.50
2023-04-23T12:48:35.495Z,25.74
2023-04-23T12:51:24.086Z,25.91
2023-04-23T12:54:13.771Z,25.91
2023-04-23T12:57:03.071Z,26.00
2023-04-23T12:59:51.693Z,26.11
2023-04-23T13:02:41.827Z,25.99
2023-04-23T13:05:30.713Z,26.02
2023-04-23T13:08:19.865Z,26.03
2023-04-23T13:11:08.495Z,26.18
2023-04-23T13:13:57.165Z,26.19
2023-04-23T13:16:46.158Z,26.26
2023-04-23T13:19:39.851Z,26.17
2023-04-23T13:22:29.921Z,26.27
2023-04-23T13:25:18.684Z,26.31
2023-04-23T13:28:07.359Z,26.38
2023-04-23T13:30:55.959Z,26.45
2023-04-23T13:33:44.510Z,26.53
2023-04-23T13:36:34.542Z,26.53
2023-04-23T13:39:23.671Z,26.70
2023-04-23T13:42:12.460Z,26.75
2023-04-23T13:45:01.804Z,26.79
2023-04-23T13:47:53.659Z,26.63
2023-04-23T13:50:42.395Z,26.57
2023-04-23T13:53:32.440Z,26.66
2023-04-23T13:56:21.045Z,26.55
2023-04-23T13:59:19.317Z,26.64
2023-04-23T14:02:08.432Z,26.70
2023-04-23T14:04:58.347Z,26.52
2023-04-23T14:07:47.147Z,26.42
2023-04-23T14:10:37.291Z,26.40
2023-04-23T14:13:26.035Z,26.60
2023-04-23T14:16:14.690Z,26.81
2023-04-23T14:19:03.279Z,26.82
2023-04-23T14:21:51.874Z,26.60
2023-04-23T14:24:45.846Z,26.55
2023-04-23T14:27:40.593Z,26.60
2023-04-23T14:30:29.989Z,26.62
2023-04-23T14:33:18.606Z,26.35
2023-04-23T14:36:07.423Z,26.45
2023-04-23T14:38:58.514Z,26.48
2023-04-23T14:41:47.296Z,26.37
2023-04-23T14:44:37.379Z,26.28
2023-04-23T14:47:26.883Z,26.20
2023-04-23T14:50:17.765Z,26.32
2023-04-23T14:53:07.748Z,26.20
2023-04-23T14:55:56.639Z,26.03
2023-04-23T14:58:45.335Z,26.03
2023-04-23T15:01:35.435Z,25.99
2023-04-23T15:04:24.149Z,26.00
2023-04-23T15:07:12.925Z,25.97
2023-04-23T15:10:06.295Z,26.01
2023-04-23T15:13:10.646Z,25.99
2023-04-23T15:16:03.624Z,25.94
2023-04-23T15:18:53.749Z,25.91
2023-04-23T15:21:43.078Z,25.92
2023-04-23T15:24:31.769Z,25.87
2023-04-23T15:27:22.011Z,25.88
2023-04-23T15:30:11.650Z,25.81
2023-04-23T15:33:00.474Z,26.00
2023-04-23T15:35:51.110Z,26.12
2023-04-23T15:38:39.698Z,26.08
2023-04-23T15:41:28.446Z,26.08
2023-04-23T15:44:18.852Z,26.05
2023-04-23T15:47:07.495Z,26.11
2023-04-23T15:49:56.056Z,26.22
2023-04-23T15:52:46.360Z,26.45
2023-04-23T15:55:35.486Z,26.51
2023-04-23T15:58:24.233Z,26.73
2023-04-23T16:01:13.004Z,26.80
2023-04-23T16:06:53.265Z,27.11
2023-04-23T16:09:43.634Z,27.09
2023-04-23T16:12:32.829Z,27.18
2023-04-23T16:15:21.630Z,27.20
2023-04-23T16:18:10.325Z,27.13
2023-04-23T16:21:01.551Z,27.19
2023-04-23T16:23:50.590Z,27.39
2023-04-23T16:26:40.986Z,27.30
2023-04-23T16:29:31.075Z,27.23
2023-04-23T16:32:19.819Z,27.10
2023-04-23T16:35:09.201Z,27.17
2023-04-23T16:37:57.946Z,27.26
2023-04-23T16:40:47.294Z,27.09
2023-04-23T16:43:37.274Z,27.10
2023-04-23T16:46:29.785Z,27.18
2023-04-23T16:49:18.403Z,27.23
2023-04-23T16:52:07.041Z,26.88
2023-04-23T16:54:55.678Z,26.72
2023-04-23T16:57:44.870Z,26.69
2023-04-23T17:00:34.860Z,26.59
2023-04-23T17:03:23.602Z,26.50
2023-04-23T17:06:14.134Z,26.77
2023-04-23T17:09:04.721Z,26.58
2023-04-23T17:11:53.501Z,26.50
2023-04-23T17:14:42.350Z,26.49
2023-04-23T17:17:32.571Z,26.39
2023-04-23T17:20:22.013Z,26.41
2023-04-23T17:23:10.600Z,26.45
2023-04-23T17:25:59.269Z,26.35
2023-04-23T17:28:47.923Z,26.32
2023-04-23T17:31:38.250Z,26.42
2023-04-23T17:34:28.700Z,26.49
2023-04-23T17:37:17.377Z,26.48
2023-04-23T17:40:07.056Z,26.39
2023-04-23T17:42:55.936Z,26.34
2023-04-23T17:45:45.346Z,26.22
2023-04-23T17:48:34.240Z,26.18
2023-04-23T17:51:24.326Z,26.02
2023-04-23T17:54:13.112Z,25.89
2023-04-23T17:57:02.740Z,25.77
2023-04-23T17:59:51.429Z,25.75
2023-04-23T18:02:41.385Z,25.69
2023-04-23T18:05:30.457Z,25.76
2023-04-23T18:08:21.341Z,25.79
2023-04-23T18:11:10.296Z,25.83
2023-04-23T18:13:59.283Z,25.92
2023-04-23T18:16:47.940Z,25.91
2023-04-23T18:19:37.154Z,25.91
2023-04-23T18:22:25.851Z,25.94
2023-04-23T18:25:16.091Z,25.97
2023-04-23T18:28:04.856Z,26.03
2023-04-23T18:30:55.430Z,26.03
2023-04-23T18:33:49.687Z,26.07
2023-04-23T18:36:44.143Z,26.10
2023-04-23T18:39:32.718Z,26.09
2023-04-23T18:42:22.852Z,26.07
2023-04-23T18:45:12.359Z,26.20
2023-04-23T18:48:06.250Z,26.09
2023-04-23T18:50:59.174Z,26.15
2023-04-23T18:53:48.015Z,26.17
2023-04-23T18:56:36.872Z,26.19
2023-04-23T18:59:26.984Z,26.18
2023-04-23T19:02:28.183Z,26.22
2023-04-23T19:05:23.103Z,26.21
2023-04-23T19:08:12.075Z,26.22
2023-04-23T19:11:00.851Z,26.22
2023-04-23T19:13:49.579Z,26.26
2023-04-23T19:16:39.876Z,26.22
2023-04-23T19:19:32.154Z,26.17
2023-04-23T19:22:22.140Z,26.28
2023-04-23T19:25:11.122Z,26.32
2023-04-23T19:27:59.766Z,26.32
2023-04-23T19:30:48.524Z,26.33
2023-04-23T19:33:38.581Z,26.29
2023-04-23T19:36:27.465Z,26.29
2023-04-23T19:39:16.260Z,26.30
2023-04-23T19:42:07.086Z,26.21
2023-04-23T19:44:56.233Z,26.29
2023-04-23T19:47:45.700Z,26.28
2023-04-23T19:50:38.558Z,26.26
2023-04-23T19:53:27.460Z,26.31
2023-04-23T19:56:18.003Z,26.29
2023-04-23T19:59:09.663Z,26.30
2023-04-23T20:01:58.482Z,26.39
2023-04-23T20:04:47.372Z,26.32
2023-04-23T20:07:37.483Z,26.36
2023-04-23T20:10:30.456Z,26.45
2023-04-23T20:13:23.807Z,26.35
2023-04-23T20:16:16.781Z,26.29
2023-04-23T20:19:05.517Z,26.27
2023-04-23T20:21:55.542Z,26.25
2023-04-23T20:24:49.019Z,26.28
2023-04-23T20:27:38.075Z,26.26
2023-04-23T20:30:27.075Z,26.28
2023-04-23T20:33:16.191Z,26.31
2023-04-23T20:36:04.904Z,26.30
2023-04-23T20:38:54.278Z,26.18
2023-04-23T20:41:46.703Z,26.40
2023-04-23T20:44:36.387Z,26.34
2023-04-23T20:47:25.071Z,26.37
2023-04-23T20:50:14.061Z,26.38
2023-04-23T20:53:02.710Z,26.66
2023-04-23T20:55:51.376Z,26.76
2023-04-23T20:58:41.428Z,26.87
2023-04-23T21:01:30.118Z,26.70
2023-04-23T21:04:22.967Z,26.40
2023-04-23T21:07:11.629Z,26.24
2023-04-23T21:10:00.316Z,26.14
2023-04-23T21:12:49.299Z,26.04
2023-04-23T21:15:40.186Z,26.01
2023-04-23T21:18:28.888Z,26.07
2023-04-23T21:21:17.564Z,26.00
2023-04-23T21:24:06.369Z,25.94
2023-04-23T21:26:55.062Z,25.93
2023-04-23T21:29:45.410Z,25.97
2023-04-23T21:32:35.504Z,26.02
2023-04-23T21:35:24.160Z,25.98
2023-04-23T21:38:13.145Z,25.99
2023-04-23T21:41:02.290Z,26.06
2023-04-23T21:43:50.846Z,26.02
2023-04-23T21:46:39.516Z,26.11
2023-04-23T21:49:29.651Z,26.06
2023-04-23T21:52:18.417Z,26.17
2023-04-23T21:55:12.219Z,26.09
2023-04-23T22:00:53.760Z,26.03
2023-04-23T22:03:46.730Z,25.99
2023-04-23T22:06:37.276Z,26.01
2023-04-23T22:09:26.156Z,26.02
2023-04-23T22:12:15.096Z,25.92
2023-04-23T22:15:03.758Z,25.95
2023-04-23T22:17:54.227Z,26.00
2023-04-23T22:20:48.340Z,25.97
2023-04-23T22:23:39.511Z,25.95
2023-04-23T22:26:28.269Z,25.86
2023-04-23T22:29:16.984Z,25.84
2023-04-23T22:32:05.715Z,25.83
2023-04-23T22:34:58.465Z,25.83
2023-04-23T22:37:47.160Z,25.76
2023-04-23T22:40:37.453Z,25.77
2023-04-23T22:43:26.157Z,25.73
2023-04-23T22:46:14.838Z,25.67
2023-04-23T22:49:04.574Z,25.71
2023-04-23T22:51:53.349Z,25.74
2023-04-23T22:54:41.917Z,25.77
2023-04-23T22:57:32.999Z,25.78
2023-04-23T23:00:21.778Z,25.83
2023-04-23T23:03:10.553Z,25.89
2023-04-23T23:05:59.279Z,25.92
2023-04-23T23:08:47.922Z,25.94
2023-04-23T23:11:36.657Z,25.94
2023-04-23T23:14:28.920Z,25.99
2023-04-23T23:17:17.598Z,25.92
2023-04-23T23:20:08.978Z,25.91
2023-04-23T23:22:57.716Z,25.84
2023-04-23T23:25:46.381Z,25.80
2023-04-23T23:28:35.108Z,25.79
2023-04-23T23:31:26.165Z,25.78
2023-04-23T23:34:14.897Z,25.68
2023-04-23T23:37:03.609Z,25.66
2023-04-23T23:39:52.204Z,25.62
2023-04-23T23:42:40.836Z,25.57
2023-04-23T23:45:29.753Z,25.75
2023-04-23T23:48:19.976Z,25.80
2023-04-23T23:51:08.616Z,25.88
2023-04-23T23:53:57.217Z,25.92
2023-04-23T23:56:45.846Z,25.86
2023-04-23T23:59:34.876Z,25.88
